Time;durP1;ratioP1;P1;durP2;ratioP2;P2;SDS_P1;SDS_P2;PMS_P1;PMS_P2;Temp;Humidity;BMP_temperature;BMP_pressure;BME280_temperature;BME280_humidity;BME280_pressure;Samples;Min_cycle;Max_cycle;Signal;HPM_P1;HPM_P2
2021/05/23 00:01:36;;;;;;;;;;;;;;;10.36;74.63;97839.80;1765612;80;26774;-88
2021/05/23 00:04:17;;;;;;;;;;;;;;;10.33;74.68;97843.95;1768628;80;24509;-89
2021/05/23 00:06:50;;;;;;;;;;;;;;;10.34;74.75;97836.47;1760436;80;20274;-88
2021/05/23 00:09:30;;;;;;;;;;;;;;;10.40;74.79;97840.39;1762183;80;25564;-89
2021/05/23 00:12:21;;;;;;;;;;;;;;;10.43;74.81;97842.27;1777670;80;22020;-88
2021/05/23 00:14:48;;;;;;;;;;;;;;;10.46;74.84;97839.91;1766779;80;26035;-88
2021/05/23 00:17:21;;;;;;;;;;;;;;;10.48;74.89;97836.20;1762971;80;24423;-89
2021/05/23 00:19:56;;;;;;;;;;;;;;;10.50;74.90;97837.40;1762790;80;20251;-89
2021/05/23 00:22:28;;;;;;;;;;;;;;;10.55;74.89;97831.80;1744991;80;24899;-89
2021/05/23 00:25:00;;;;;;;;;;;;;;;10.59;74.88;97830.59;1745730;80;22035;-89
2021/05/23 00:27:32;;;;;;;;;;;;;;;10.63;74.88;97830.25;1768615;80;25948;-89
2021/05/23 00:30:04;;;;;;;;;;;;;;;10.63;74.89;97831.56;1755853;80;24418;-89
2021/05/23 00:32:41;;;;;;;;;;;;;;;10.67;74.88;97834.75;1754669;80;20232;-89
2021/05/23 00:35:20;;;;;;;;;;;;;;;10.65;74.87;97832.25;1762879;80;24855;-89
2021/05/23 00:37:52;;;;;;;;;;;;;;;10.68;74.83;97833.33;1762211;80;21937;-88
2021/05/23 00:40:20;;;;;;;;;;;;;;;10.70;74.83;97825.34;1774928;80;25961;-88
2021/05/23 00:42:46;;;;;;;;;;;;;;;10.68;74.82;97825.48;1762750;80;25037;-89
2021/05/23 00:45:19;;;;;;;;;;;;;;;10.65;74.80;97827.02;1734429;80;20517;-88
2021/05/23 00:47:46;;;;;;;;;;;;;;;10.65;74.79;97830.94;1762802;80;24841;-88
2021/05/23 00:50:19;;;;;;;;;;;;;;;10.67;74.78;97821.20;1766988;80;22602;-88
2021/05/23 00:58:21;;;;;;;;;;;;;;;10.62;74.74;97828.58;1707597;82;20217;-88
2021/05/23 01:00:58;;;;;;;;;;;;;;;10.61;74.70;97823.46;1704610;82;25480;-89
2021/05/23 01:03:29;;;;;;;;;;;;;;;10.57;74.67;97825.98;1760746;79;22069;-88
2021/05/23 01:06:08;;;;;;;;;;;;;;;10.56;74.67;97820.38;1764399;80;26078;-89
2021/05/23 01:11:49;;;;;;;;;;;;;;;10.54;74.66;97822.28;1768934;79;20213;-89
2021/05/23 01:14:22;;;;;;;;;;;;;;;10.52;74.65;97823.73;1759200;81;24697;-89
2021/05/23 01:16:53;;;;;;;;;;;;;;;10.51;74.66;97822.06;1775766;79;21438;-88
2021/05/23 01:19:47;;;;;;;;;;;;;;;10.47;74.66;97816.73;1779607;78;26280;-88
2021/05/23 01:22:32;;;;;;;;;;;;;;;10.45;74.65;97812.08;1776793;79;25169;-88
2021/05/23 01:25:14;;;;;;;;;;;;;;;10.44;74.66;97819.09;1781310;79;20270;-89
2021/05/23 01:27:52;;;;;;;;;;;;;;;10.42;74.65;97817.53;1770590;79;25325;-89
2021/05/23 01:30:20;;;;;;;;;;;;;;;10.41;74.70;97823.75;1784398;79;21981;-89
2021/05/23 01:32:49;;;;;;;;;;;;;;;10.43;74.71;97823.13;1778053;79;26653;-89
2021/05/23 01:35:18;;;;;;;;;;;;;;;10.45;74.73;97830.39;1772538;79;24411;-88
2021/05/23 01:37:50;;;;;;;;;;;;;;;10.43;74.75;97824.44;1769827;79;20638;-88
2021/05/23 01:40:27;;;;;;;;;;;;;;;10.45;74.74;97833.01;1773945;78;24771;-88
2021/05/23 01:42:54;;;;;;;;;;;;;;;10.44;74.73;97833.95;1779036;79;21941;-88
2021/05/23 01:45:29;;;;;;;;;;;;;;;10.41;74.73;97832.90;1787877;79;26158;-88
2021/05/23 01:47:58;;;;;;;;;;;;;;;10.39;74.73;97829.56;1779869;79;24447;-88
2021/05/23 01:50:41;;;;;;;;;;;;;;;10.37;74.75;97830.14;1779606;79;20559;-87
2021/05/23 01:55:46;;;;;;;;;;;;;;;10.36;74.75;97835.88;1788639;79;22764;-88
2021/05/23 01:58:18;;;;;;;;;;;;;;;10.34;74.78;97830.41;1800553;79;26497;-87
2021/05/23 02:00:46;;;;;;;;;;;;;;;10.33;74.77;97830.88;1797063;78;24364;-88
2021/05/23 02:03:20;;;;;;;;;;;;;;;10.35;74.79;97830.30;1797074;79;20215;-88
2021/05/23 02:06:00;;;;;;;;;;;;;;;10.36;74.79;97833.74;1794241;79;24757;-88
2021/05/23 02:08:27;;;;;;;;;;;;;;;10.36;74.81;97834.58;1797491;79;21528;-87
2021/05/23 02:11:00;;;;;;;;;;;;;;;10.36;74.80;97833.74;1794033;79;26030;-88
2021/05/23 02:13:27;;;;;;;;;;;;;;;10.35;74.77;97837.30;1797064;79;24743;-88
2021/05/23 02:15:56;;;;;;;;;;;;;;;10.36;74.78;97838.50;1797018;79;20235;-88
2021/05/23 02:18:30;;;;;;;;;;;;;;;10.37;74.80;97834.07;1806072;79;24817;-88
2021/05/23 02:21:13;;;;;;;;;;;;;;;10.35;74.81;97839.45;1793225;79;21992;-88
2021/05/23 02:23:43;;;;;;;;;;;;;;;10.35;74.81;97846.45;1797558;79;25985;-88
2021/05/23 02:29:08;;;;;;;;;;;;;;;10.36;74.83;97852.05;1754599;79;20307;-88
2021/05/23 02:31:39;;;;;;;;;;;;;;;10.32;74.85;97858.45;1793711;79;24814;-88
2021/05/23 02:34:14;;;;;;;;;;;;;;;10.31;74.86;97857.61;1802833;79;22084;-87
2021/05/23 02:36:40;;;;;;;;;;;;;;;10.31;74.88;97857.61;1799842;79;25976;-89
2021/05/23 02:39:06;;;;;;;;;;;;;;;10.33;74.91;97866.19;1794723;79;24406;-89
2021/05/23 02:41:39;;;;;;;;;;;;;;;10.32;74.91;97859.75;1790430;79;20265;-88
2021/05/23 02:44:08;;;;;;;;;;;;;;;10.31;74.93;97868.08;1752001;79;21636;-89
2021/05/23 02:46:35;;;;;;;;;;;;;;;10.34;74.97;97866.55;1796541;79;22063;-89
2021/05/23 02:49:19;;;;;;;;;;;;;;;10.37;74.96;97863.67;1796311;79;26749;-88
2021/05/23 02:51:46;;;;;;;;;;;;;;;10.39;75.02;97855.25;1799338;79;24502;-88
2021/05/23 02:54:12;;;;;;;;;;;;;;;10.44;75.05;97858.33;1788184;79;20249;-89
2021/05/23 02:56:39;;;;;;;;;;;;;;;10.48;75.07;97859.75;1795013;79;24788;-89
2021/05/23 02:59:05;;;;;;;;;;;;;;;10.47;75.08;97858.08;1797046;79;21989;-89
2021/05/23 03:01:46;;;;;;;;;;;;;;;10.45;75.12;97861.31;1804756;79;26020;-89
2021/05/23 03:04:22;;;;;;;;;;;;;;;10.45;75.12;97856.55;1797527;79;24423;-88
2021/05/23 03:06:48;;;;;;;;;;;;;;;10.47;75.16;97852.05;1792003;78;20281;-88
2021/05/23 03:09:21;;;;;;;;;;;;;;;10.55;75.16;97847.50;1789547;79;25000;-88
2021/05/23 03:11:46;;;;;;;;;;;;;;;10.57;75.20;97839.89;1810917;78;22841;-88
2021/05/23 03:14:18;;;;;;;;;;;;;;;10.57;75.20;97845.59;1788279;79;26334;-88
2021/05/23 03:16:45;;;;;;;;;;;;;;;10.57;75.20;97841.20;1762025;79;25024;-88
2021/05/23 03:19:11;;;;;;;;;;;;;;;10.61;75.20;97837.86;1747106;79;20314;-88
2021/05/23 03:21:37;;;;;;;;;;;;;;;10.63;75.23;97836.80;1735067;81;24654;-89
2021/05/23 03:24:07;;;;;;;;;;;;;;;10.67;75.20;97839.52;1725368;80;22029;-89
2021/05/23 03:26:34;;;;;;;;;;;;;;;10.72;75.20;97833.44;1774764;79;25940;-88
2021/05/23 03:29:04;;;;;;;;;;;;;;;10.75;75.23;97833.64;1738362;80;24504;-88
2021/05/23 03:31:33;;;;;;;;;;;;;;;10.78;75.22;97842.11;1781739;79;20226;-88
2021/05/23 03:34:03;;;;;;;;;;;;;;;10.83;75.22;97841.73;1778905;79;24985;-89
2021/05/23 03:36:29;;;;;;;;;;;;;;;10.84;75.20;97842.09;1785157;79;21963;-88
2021/05/23 03:39:03;;;;;;;;;;;;;;;10.90;75.20;97846.84;1782154;79;26125;-88
2021/05/23 03:41:29;;;;;;;;;;;;;;;10.94;75.20;97849.55;1778336;79;24283;-88
2021/05/23 03:43:56;;;;;;;;;;;;;;;11.00;75.18;97848.23;1781107;78;20327;-88
2021/05/23 03:46:22;;;;;;;;;;;;;;;11.04;75.17;97844.40;1768109;79;24706;-88
2021/05/23 03:48:48;;;;;;;;;;;;;;;11.10;75.16;97843.43;1774635;79;21914;-88
2021/05/23 03:51:14;;;;;;;;;;;;;;;11.15;75.14;97843.89;1775424;79;25941;-89
2021/05/23 03:53:44;;;;;;;;;;;;;;;11.19;75.10;97851.00;1731778;79;24429;-88
2021/05/23 03:56:21;;;;;;;;;;;;;;;11.22;75.06;97848.98;1773251;79;20538;-89
2021/05/23 03:58:54;;;;;;;;;;;;;;;11.28;75.01;97847.17;1781786;79;24854;-89
2021/05/23 04:01:20;;;;;;;;;;;;;;;11.33;75.00;97842.87;1774026;80;22105;-88
2021/05/23 04:03:58;;;;;;;;;;;;;;;11.37;74.95;97851.30;1771672;79;26036;-88
2021/05/23 04:06:30;;;;;;;;;;;;;;;11.41;74.89;97844.83;1767706;79;20209;-88
2021/05/23 04:08:59;;;;;;;;;;;;;;;11.44;74.88;97849.84;1771708;79;20376;-89
2021/05/23 04:11:34;;;;;;;;;;;;;;;11.46;74.81;97854.45;1770497;79;24816;-89
2021/05/23 04:13:55;;;;;;;;;;;;;;;11.49;74.81;97849.81;1772661;79;22142;-89
2021/05/23 04:16:22;;;;;;;;;;;;;;;11.56;74.74;97854.07;1764811;79;21005;-89
2021/05/23 04:18:54;;;;;;;;;;;;;;;11.63;74.69;97855.20;1767869;78;24448;-88
2021/05/23 04:21:33;;;;;;;;;;;;;;;11.66;74.67;97854.97;1775645;78;20234;-89
2021/05/23 04:24:03;;;;;;;;;;;;;;;11.71;74.65;97844.92;1730926;80;24740;-89
2021/05/23 04:26:32;;;;;;;;;;;;;;;11.76;74.62;97857.67;1766930;78;22166;-88
2021/05/23 04:28:58;;;;;;;;;;;;;;;11.83;74.58;97850.97;1777579;78;26102;-88
2021/05/23 04:31:24;;;;;;;;;;;;;;;11.84;74.52;97849.50;1775518;78;24605;-89
2021/05/23 04:34:03;;;;;;;;;;;;;;;11.87;74.46;97853.19;1774475;80;20211;-89
2021/05/23 04:36:35;;;;;;;;;;;;;;;11.95;74.42;97854.67;1779949;78;24845;-88
2021/05/23 04:39:03;;;;;;;;;;;;;;;12.02;74.35;97862.38;1779504;78;22026;-88
2021/05/23 04:41:42;;;;;;;;;;;;;;;12.16;74.32;97867.27;1776407;78;26140;-88
2021/05/23 04:44:18;;;;;;;;;;;;;;;12.22;74.27;97850.69;1772772;78;24539;-88
2021/05/23 04:46:50;;;;;;;;;;;;;;;12.33;74.22;97861.89;1750454;80;20194;-87
2021/05/23 04:49:22;;;;;;;;;;;;;;;12.45;74.18;97867.41;1785144;78;24784;-88
2021/05/23 04:51:49;;;;;;;;;;;;;;;12.52;74.12;97869.02;1776299;78;21940;-87
2021/05/23 04:54:15;;;;;;;;;;;;;;;12.61;74.04;97864.27;1745791;80;25795;-88
2021/05/23 04:56:47;;;;;;;;;;;;;;;12.70;73.96;97867.91;1766211;80;20435;-88
2021/05/23 04:59:13;;;;;;;;;;;;;;;12.70;73.84;97866.59;1780753;79;20189;-88
2021/05/23 05:01:42;;;;;;;;;;;;;;;12.72;73.72;97866.80;1769839;79;20288;-89
2021/05/23 05:04:14;;;;;;;;;;;;;;;12.76;73.61;97866.90;1763610;80;21995;-88
2021/05/23 05:06:40;;;;;;;;;;;;;;;12.82;73.51;97870.78;1762356;79;26002;-88
2021/05/23 05:09:06;;;;;;;;;;;;;;;12.86;73.42;97869.06;1777333;79;24422;-88
2021/05/23 05:11:35;;;;;;;;;;;;;;;12.92;73.33;97867.20;1766384;79;20257;-88
2021/05/23 05:14:10;;;;;;;;;;;;;;;12.99;73.23;97860.91;1769182;80;24839;-88
2021/05/23 05:16:38;;;;;;;;;;;;;;;13.02;73.19;97857.19;1766425;79;21930;-88
2021/05/23 05:19:10;;;;;;;;;;;;;;;13.08;73.09;97856.17;1769241;79;25912;-89
2021/05/23 05:21:42;;;;;;;;;;;;;;;13.16;73.00;97856.33;1769901;79;24595;-88
2021/05/23 05:24:09;;;;;;;;;;;;;;;13.24;72.91;97853.86;1767995;79;20216;-88
2021/05/23 05:26:35;;;;;;;;;;;;;;;13.28;72.76;97861.80;1777181;79;24837;-88
2021/05/23 05:29:09;;;;;;;;;;;;;;;13.34;72.64;97858.63;1768931;79;22002;-88
2021/05/23 05:31:41;;;;;;;;;;;;;;;13.39;72.51;97856.89;1766186;79;25978;-88
2021/05/23 05:34:26;;;;;;;;;;;;;;;13.46;72.40;97857.17;1763709;80;24379;-88
2021/05/23 05:37:02;;;;;;;;;;;;;;;13.53;72.28;97860.91;1770960;80;20204;-88
2021/05/23 05:39:30;;;;;;;;;;;;;;;13.55;72.10;97862.42;1761859;80;24756;-88
2021/05/23 05:41:59;;;;;;;;;;;;;;;13.62;71.96;97857.44;1765823;80;22066;-88
2021/05/23 05:44:43;;;;;;;;;;;;;;;13.73;71.79;97863.38;1768249;79;25975;-88
2021/05/23 05:47:23;;;;;;;;;;;;;;;13.84;71.72;97861.08;1780225;79;24466;-88
2021/05/23 05:49:49;;;;;;;;;;;;;;;13.92;71.59;97862.50;1739366;79;20404;-88
2021/05/23 05:52:37;;;;;;;;;;;;;;;13.93;71.51;97851.02;1773015;79;24843;-88
2021/05/23 05:55:04;;;;;;;;;;;;;;;14.07;71.42;97866.84;1788327;78;22087;-88
2021/05/23 05:57:30;;;;;;;;;;;;;;;14.16;71.27;97862.03;1789541;78;25902;-88
2021/05/23 06:00:03;;;;;;;;;;;;;;;14.21;71.18;97869.01;1772974;79;24522;-88
2021/05/23 06:02:30;;;;;;;;;;;;;;;14.23;71.02;97871.02;1770740;79;20272;-88
2021/05/23 06:04:56;;;;;;;;;;;;;;;14.33;70.92;97873.13;1783682;78;24750;-89
2021/05/23 06:07:31;;;;;;;;;;;;;;;14.37;70.77;97876.33;1814801;78;22054;-87
2021/05/23 06:10:02;;;;;;;;;;;;;;;14.40;70.62;97878.17;1804124;78;26007;-87
2021/05/23 06:12:56;;;;;;;;;;;;;;;14.48;70.52;97876.97;1804617;78;24428;-88
2021/05/23 06:15:22;;;;;;;;;;;;;;;14.57;70.38;97885.31;1808303;78;20223;-87
2021/05/23 06:18:07;;;;;;;;;;;;;;;14.67;70.19;97882.66;1810155;78;20452;-89
2021/05/23 06:20:33;;;;;;;;;;;;;;;14.80;70.14;97881.81;1807754;78;21995;-88
2021/05/23 06:22:59;;;;;;;;;;;;;;;14.89;70.00;97886.19;1811951;78;25947;-87
2021/05/23 06:25:34;;;;;;;;;;;;;;;14.98;69.89;97885.80;1804922;78;24382;-87
2021/05/23 06:28:02;;;;;;;;;;;;;;;15.05;69.67;97892.15;1800889;78;20235;-87
2021/05/23 06:30:40;;;;;;;;;;;;;;;15.09;69.40;97886.91;1806431;78;25733;-87
2021/05/23 06:33:08;;;;;;;;;;;;;;;15.14;69.18;97893.88;1808237;78;22025;-89
2021/05/23 06:35:44;;;;;;;;;;;;;;;15.18;69.02;97893.92;1793913;78;25971;-87
2021/05/23 06:38:10;;;;;;;;;;;;;;;15.25;68.92;97887.08;1810201;78;25173;-88
2021/05/23 06:40:44;;;;;;;;;;;;;;;15.28;68.78;97888.09;1804886;78;20256;-88
2021/05/23 06:43:48;;;;;;;;;;;;;;;15.36;68.70;97888.18;1806365;78;24771;-88
2021/05/23 06:46:13;;;;;;;;;;;;;;;15.47;68.63;97888.45;1793294;78;21915;-87
2021/05/23 06:48:40;;;;;;;;;;;;;;;15.57;68.51;97883.11;1814542;78;25930;-88
2021/05/23 06:51:16;;;;;;;;;;;;;;;15.71;68.41;97886.03;1809475;78;24427;-87
2021/05/23 06:53:42;;;;;;;;;;;;;;;15.84;68.24;97876.41;1809816;78;20232;-87
2021/05/23 06:56:14;;;;;;;;;;;;;;;15.95;68.02;97885.89;1791245;79;24823;-88
2021/05/23 06:58:46;;;;;;;;;;;;;;;16.08;67.86;97895.08;1778749;79;22052;-87
2021/05/23 07:01:18;;;;;;;;;;;;;;;16.17;67.61;97895.45;1735081;80;25957;-87
2021/05/23 07:03:44;;;;;;;;;;;;;;;16.23;67.28;97897.48;1756102;80;24459;-87
2021/05/23 07:06:13;;;;;;;;;;;;;;;16.31;67.05;97901.47;1741299;80;20194;-87
2021/05/23 07:08:39;;;;;;;;;;;;;;;16.40;66.80;97909.46;1737058;80;24846;-88
2021/05/23 07:11:07;;;;;;;;;;;;;;;16.44;66.55;97908.16;1774043;78;22718;-88
2021/05/23 07:13:34;;;;;;;;;;;;;;;16.52;66.38;97909.05;1779336;78;26016;-87
2021/05/23 07:16:06;;;;;;;;;;;;;;;16.60;66.18;97905.14;1795263;78;24458;-87
2021/05/23 07:18:47;;;;;;;;;;;;;;;16.67;65.89;97911.46;1742687;80;20295;-88
2021/05/23 07:21:18;;;;;;;;;;;;;;;16.74;65.72;97909.02;1764376;80;25478;-88
2021/05/23 07:23:45;;;;;;;;;;;;;;;16.75;65.31;97906.69;1781283;78;22028;-87
2021/05/23 07:26:15;;;;;;;;;;;;;;;16.79;65.07;97907.22;1748446;80;26862;-88
2021/05/23 07:29:03;;;;;;;;;;;;;;;16.86;64.82;97912.17;1748044;80;23846;-88
2021/05/23 07:31:36;;;;;;;;;;;;;;;16.95;64.67;97906.79;1741759;80;20544;-88
2021/05/23 07:34:02;;;;;;;;;;;;;;;17.03;64.47;97907.30;1752012;80;24790;-87
2021/05/23 07:36:38;;;;;;;;;;;;;;;17.02;64.19;97905.14;1801940;79;22137;-88
2021/05/23 07:39:04;;;;;;;;;;;;;;;17.03;63.93;97904.16;1787542;79;25940;-88
2021/05/23 07:41:30;;;;;;;;;;;;;;;17.11;63.68;97909.48;1778497;79;24319;-88
2021/05/23 07:44:07;;;;;;;;;;;;;;;17.23;63.53;97911.83;1791518;79;20870;-87
2021/05/23 07:46:38;;;;;;;;;;;;;;;17.27;63.27;97906.05;1785079;79;24924;-88
2021/05/23 07:49:09;;;;;;;;;;;;;;;17.35;63.09;97903.90;1781090;79;22066;-88
2021/05/23 07:51:37;;;;;;;;;;;;;;;17.39;62.88;97900.80;1791679;79;26028;-88
2021/05/23 07:54:03;;;;;;;;;;;;;;;17.44;62.71;97897.16;1780859;79;25299;-87
2021/05/23 07:56:29;;;;;;;;;;;;;;;17.48;62.53;97891.87;1772439;80;20230;-87
2021/05/23 08:01:30;;;;;;;;;;;;;;;17.57;62.14;97893.52;1771648;80;22077;-87
2021/05/23 08:04:05;;;;;;;;;;;;;;;17.65;62.02;97897.20;1769530;80;26560;-87
2021/05/23 08:06:33;;;;;;;;;;;;;;;17.69;61.90;97895.38;1767563;80;24505;-88
2021/05/23 08:09:05;;;;;;;;;;;;;;;17.73;61.69;97898.02;1768743;80;20272;-89
2021/05/23 08:11:34;;;;;;;;;;;;;;;17.79;61.48;97898.69;1772420;80;24800;-88
2021/05/23 08:14:00;;;;;;;;;;;;;;;17.84;61.28;97895.05;1772101;80;21991;-88
2021/05/23 08:16:36;;;;;;;;;;;;;;;17.88;61.07;97901.69;1769383;80;21057;-88
2021/05/23 08:19:04;;;;;;;;;;;;;;;17.92;60.90;97901.68;1770782;80;24402;-89
2021/05/23 08:21:36;;;;;;;;;;;;;;;18.00;60.74;97902.68;1765694;80;20233;-87
2021/05/23 08:24:12;;;;;;;;;;;;;;;18.05;60.69;97908.30;1772157;79;24835;-88
2021/05/23 08:26:42;;;;;;;;;;;;;;;18.05;60.55;97905.16;1771186;80;21916;-89
2021/05/23 08:29:11;;;;;;;;;;;;;;;18.04;60.31;97908.80;1768557;80;25929;-88
2021/05/23 08:31:49;;;;;;;;;;;;;;;18.04;60.08;97907.97;1771260;79;24406;-88
2021/05/23 08:34:15;;;;;;;;;;;;;;;18.06;59.89;97906.78;1765948;80;20242;-88
2021/05/23 08:36:44;;;;;;;;;;;;;;;18.09;59.76;97909.12;1770600;80;24720;-88
2021/05/23 08:39:19;;;;;;;;;;;;;;;18.09;59.67;97907.80;1770921;80;21837;-88
2021/05/23 08:41:46;;;;;;;;;;;;;;;18.06;59.51;97911.25;1769763;80;25886;-88
2021/05/23 08:44:23;;;;;;;;;;;;;;;18.08;59.31;97918.55;1774236;80;24388;-88
2021/05/23 08:47:01;;;;;;;;;;;;;;;18.09;59.14;97914.91;1769064;80;20225;-88
2021/05/23 08:49:28;;;;;;;;;;;;;;;18.09;58.98;97913.59;1770161;80;24861;-88
2021/05/23 08:51:54;;;;;;;;;;;;;;;18.07;58.79;97925.66;1771251;80;22057;-87
2021/05/23 08:54:22;;;;;;;;;;;;;;;18.10;58.64;97922.70;1767139;80;26163;-87
2021/05/23 08:56:55;;;;;;;;;;;;;;;18.13;58.55;97928.97;1798550;79;25289;-87
2021/05/23 08:59:30;;;;;;;;;;;;;;;18.12;58.46;97931.77;1798213;79;20213;-88
2021/05/23 09:02:07;;;;;;;;;;;;;;;18.11;58.34;97936.77;1803943;79;24947;-88
2021/05/23 09:04:49;;;;;;;;;;;;;;;18.09;58.20;97930.80;1792513;79;22582;-88
2021/05/23 09:07:21;;;;;;;;;;;;;;;18.09;58.05;97940.06;1792862;79;26002;-88
2021/05/23 09:09:49;;;;;;;;;;;;;;;18.05;57.91;97942.73;1767671;79;25272;-88
2021/05/23 09:12:17;;;;;;;;;;;;;;;18.00;57.76;97937.93;1792680;79;20237;-87
2021/05/23 09:14:45;;;;;;;;;;;;;;;17.96;57.64;97942.71;1793674;79;24790;-88
2021/05/23 09:17:34;;;;;;;;;;;;;;;17.94;57.55;97939.42;1787282;79;22179;-87
2021/05/23 09:28:47;;;;;;;;;;;;;;;17.92;57.27;97942.72;1795601;78;25526;-88
2021/05/23 09:31:26;;;;;;;;;;;;;;;17.89;57.26;97945.67;1751936;79;22115;-88
2021/05/23 09:33:55;;;;;;;;;;;;;;;17.84;57.23;97953.78;1770887;78;25954;-88
2021/05/23 09:36:21;;;;;;;;;;;;;;;17.80;57.20;97949.32;1776743;78;24596;-88
2021/05/23 09:39:01;;;;;;;;;;;;;;;17.74;57.10;97954.44;1750564;80;20404;-87
2021/05/23 09:41:39;;;;;;;;;;;;;;;17.69;57.02;97959.39;1778209;78;24836;-87
2021/05/23 09:44:25;;;;;;;;;;;;;;;17.70;57.05;97965.02;1785969;78;21956;-88
2021/05/23 09:46:54;;;;;;;;;;;;;;;17.72;57.23;97967.86;1779448;78;25960;-88
2021/05/23 09:49:23;;;;;;;;;;;;;;;17.68;57.37;97971.80;1786570;78;24484;-88
2021/05/23 09:51:51;;;;;;;;;;;;;;;17.61;57.51;97974.78;1782463;78;20351;-87
2021/05/23 09:54:17;;;;;;;;;;;;;;;17.54;57.54;97982.99;1785502;78;24749;-87
2021/05/23 09:56:43;;;;;;;;;;;;;;;17.47;57.45;97985.94;1779647;78;22013;-87
2021/05/23 09:59:18;;;;;;;;;;;;;;;17.41;57.42;97976.00;1774677;78;20955;-87
2021/05/23 10:01:50;;;;;;;;;;;;;;;17.40;57.42;97982.30;1777564;78;24371;-88
2021/05/23 10:04:24;;;;;;;;;;;;;;;17.38;57.48;97986.42;1775166;78;20345;-87
2021/05/23 10:06:58;;;;;;;;;;;;;;;17.37;57.56;97992.70;1780279;78;24738;-88
2021/05/23 10:09:46;;;;;;;;;;;;;;;17.35;57.58;97993.83;1780465;78;22966;-87
2021/05/23 10:12:15;;;;;;;;;;;;;;;17.25;57.63;97997.94;1750290;80;22730;-88
2021/05/23 10:14:42;;;;;;;;;;;;;;;17.17;57.74;97995.28;1750284;78;24308;-88
2021/05/23 10:19:48;;;;;;;;;;;;;;;16.86;57.74;98013.45;1720373;80;20231;-95
2021/05/23 10:25:09;;;;;;;;;;;;;;;;;;;;;
2021/05/23 10:27:34;;;;;;;;;;;;;;;;;;;;;
2021/05/23 10:30:06;;;;;;;;;;;;;;;16.43;57.88;98036.74;1706516;83;20259;-92
2021/05/23 10:32:37;;;;;;;;;;;;;;;16.33;57.93;98030.23;1695872;84;21723;-93
2021/05/23 10:35:15;;;;;;;;;;;;;;;16.33;58.03;98028.92;1614740;89;20346;-94
2021/05/23 10:38:07;;;;;;;;;;;;;;;;;;;;;
2021/05/23 10:56:51;;;;;;;;;;;;;;;;;;;;;
2021/05/23 10:59:03;;;;;;;;;;;;;;;15.02;57.33;98118.58;1550290;89;20609;-96
2021/05/23 11:04:55;;;;;;;;;;;;;;;14.81;57.28;98127.16;1460909;97;20313;-93
2021/05/23 11:11:00;;;;;;;;;;;;;;;;;;;;;
2021/05/23 11:13:40;;;;;;;;;;;;;;;14.51;57.46;98131.28;1529164;92;20291;-95
2021/05/23 11:16:20;;;;;;;;;;;;;;;;;;;;;
2021/05/23 11:21:59;;;;;;;;;;;;;;;14.42;57.94;98122.88;1604429;89;22251;-95
2021/05/23 11:31:00;;;;;;;;;;;;;;;;;;;;;
2021/05/23 11:36:44;;;;;;;;;;;;;;;14.45;58.77;98093.17;1590356;90;23922;-95
2021/05/23 11:39:12;;;;;;;;;;;;;;;14.63;58.94;98089.33;1619685;88;24432;-94
2021/05/23 11:41:47;;;;;;;;;;;;;;;14.69;59.04;98076.08;1658731;86;20188;-96
2021/05/23 11:44:17;;;;;;;;;;;;;;;14.71;59.10;98073.66;1660015;86;25019;-96
2021/05/23 11:46:52;;;;;;;;;;;;;;;14.77;59.19;98073.09;1633860;88;20359;-95
2021/05/23 11:49:29;;;;;;;;;;;;;;;14.87;59.24;98073.06;1655908;83;21419;-96
2021/05/23 11:55:37;;;;;;;;;;;;;;;14.92;59.27;98065.08;1729674;83;20203;-95
2021/05/23 11:58:17;;;;;;;;;;;;;;;15.02;59.37;98068.99;1727836;82;24970;-95
2021/05/23 12:00:45;;;;;;;;;;;;;;;15.11;59.44;98058.89;1700732;83;22032;-96
2021/05/23 12:05:54;;;;;;;;;;;;;;;15.19;59.54;98064.77;1612130;87;22022;-95
2021/05/23 12:08:23;;;;;;;;;;;;;;;15.25;59.60;98065.03;1591268;90;20217;-94
2021/05/23 12:11:13;;;;;;;;;;;;;;;15.35;59.68;98064.98;1643628;87;24770;-95
2021/05/23 12:13:44;;;;;;;;;;;;;;;15.37;59.74;98077.05;1658170;83;20537;-94
2021/05/23 12:16:12;;;;;;;;;;;;;;;15.37;59.77;98079.69;1729463;83;25914;-96
2021/05/23 12:19:44;;;;;;;;;;;;;;;;;;;;;
2021/05/23 12:21:29;;;;;;;;;;;;;;;;;;;;;
2021/05/23 12:23:54;;;;;;;;;;;;;;;15.54;59.83;98084.72;1706720;81;22238;-96
2021/05/23 12:26:36;;;;;;;;;;;;;;;15.55;59.74;98084.23;1629686;88;20250;-95
2021/05/23 12:29:07;;;;;;;;;;;;;;;;;;;;;
2021/05/23 12:31:27;;;;;;;;;;;;;;;15.56;59.57;98080.10;1603199;88;23742;-96
2021/05/23 12:37:47;;;;;;;;;;;;;;;;;;;;;
2021/05/23 12:46:47;;;;;;;;;;;;;;;15.79;59.48;98084.48;1522872;94;20558;-95
2021/05/23 12:49:16;;;;;;;;;;;;;;;15.81;59.34;98085.19;1494547;96;20297;-96
2021/05/23 12:51:57;;;;;;;;;;;;;;;15.81;59.25;98082.55;1505970;95;20281;-96
2021/05/23 12:54:38;;;;;;;;;;;;;;;;;;;;;
2021/05/23 12:57:07;;;;;;;;;;;;;;;15.74;58.99;98084.94;1505622;92;21873;-95
2021/05/23 12:59:53;;;;;;;;;;;;;;;15.74;58.89;98090.70;1558335;91;21875;-96
2021/05/23 13:02:19;;;;;;;;;;;;;;;15.72;58.81;98087.37;1515185;92;20243;-95
2021/05/23 13:04:54;;;;;;;;;;;;;;;;;;;;;
2021/05/23 13:07:32;;;;;;;;;;;;;;;15.63;58.58;98092.22;1596858;88;20216;-95
2021/05/23 13:13:52;;;;;;;;;;;;;;;;;;;;;
2021/05/23 13:19:38;;;;;;;;;;;;;;;;;;;;;
2021/05/23 13:22:54;;;;;;;;;;;;;;;15.39;58.31;98106.73;1472406;94;20263;-95
2021/05/23 13:24:45;;;;;;;;;;;;;;;15.42;58.37;98113.05;1412489;99;23367;-96
2021/05/23 13:33:54;;;;;;;;;;;;;;;;;;;;;
2021/05/23 13:36:43;;;;;;;;;;;;;;;;;;;;;
2021/05/23 13:42:26;;;;;;;;;;;;;;;15.32;58.21;98110.11;1458036;98;20946;-95
2021/05/23 13:48:03;;;;;;;;;;;;;;;15.29;58.20;98113.02;1452913;98;20929;-95
2021/05/23 13:50:49;;;;;;;;;;;;;;;;;;;;;
2021/05/23 13:53:13;;;;;;;;;;;;;;;15.37;58.32;98111.34;1447227;97;26015;-95
2021/05/23 13:59:05;;;;;;;;;;;;;;;15.40;58.38;98118.94;1503422;94;20245;-96
2021/05/23 14:11:05;;;;;;;;;;;;;;;15.41;58.69;98136.44;1533357;91;20673;-96
2021/05/23 14:13:32;;;;;;;;;;;;;;;15.37;58.66;98137.70;1534604;93;20727;-95
2021/05/23 14:15:59;;;;;;;;;;;;;;;15.37;58.65;98148.25;1574888;88;24632;-96
2021/05/23 14:18:29;;;;;;;;;;;;;;;15.41;58.65;98152.73;1594343;89;21796;-96
2021/05/23 14:24:22;;;;;;;;;;;;;;;15.39;58.70;98148.92;1615001;89;22383;-95
2021/05/23 14:26:54;;;;;;;;;;;;;;;15.33;58.64;98145.53;1582894;89;20286;-96
2021/05/23 14:29:40;;;;;;;;;;;;;;;15.28;58.64;98143.81;1594082;87;21882;-96
2021/05/23 14:32:12;;;;;;;;;;;;;;;15.26;58.65;98147.11;1613448;86;22354;-96
2021/05/23 14:34:46;;;;;;;;;;;;;;;15.17;58.59;98147.11;1609236;89;26174;-96
2021/05/23 14:37:16;;;;;;;;;;;;;;;15.12;58.60;98148.86;1584197;88;24195;-96
2021/05/23 14:39:49;;;;;;;;;;;;;;;15.09;58.68;98153.11;1609100;89;20225;-96
2021/05/23 14:42:17;;;;;;;;;;;;;;;15.00;58.73;98154.78;1622432;88;24906;-95
2021/05/23 14:44:43;;;;;;;;;;;;;;;14.91;58.80;98156.95;1627147;88;20427;-94
2021/05/23 14:47:11;;;;;;;;;;;;;;;14.81;58.82;98165.36;1626702;88;21312;-94
2021/05/23 14:49:54;;;;;;;;;;;;;;;14.70;58.80;98168.62;1626513;88;21472;-94
2021/05/23 14:55:44;;;;;;;;;;;;;;;14.59;58.86;98173.06;1628627;88;20920;-96
2021/05/23 14:58:09;;;;;;;;;;;;;;;14.55;58.85;98176.11;1626929;88;21764;-96
2021/05/23 15:00:43;;;;;;;;;;;;;;;14.57;58.96;98179.42;1601634;88;26244;-96
2021/05/23 15:05:55;;;;;;;;;;;;;;;14.51;59.08;98178.17;1601201;88;20258;-95
2021/05/23 15:08:29;;;;;;;;;;;;;;;14.50;59.12;98179.16;1625515;88;25051;-96
2021/05/23 15:10:56;;;;;;;;;;;;;;;14.52;59.21;98175.05;1606846;86;21925;-95
2021/05/23 15:13:22;;;;;;;;;;;;;;;14.49;59.29;98181.45;1632694;86;25830;-95
2021/05/23 15:15:48;;;;;;;;;;;;;;;14.43;59.38;98181.16;1626965;88;24386;-95
2021/05/23 15:18:14;;;;;;;;;;;;;;;14.38;59.44;98182.89;1633103;88;20327;-96
2021/05/23 15:20:40;;;;;;;;;;;;;;;14.36;59.51;98182.62;1631608;88;20406;-95
2021/05/23 15:23:06;;;;;;;;;;;;;;;14.39;59.59;98181.09;1631318;88;21877;-95
2021/05/23 15:25:32;;;;;;;;;;;;;;;14.40;59.67;98182.25;1631679;88;20952;-94
2021/05/23 15:30:28;;;;;;;;;;;;;;;14.38;59.75;98182.05;1632031;88;20195;-95
2021/05/23 15:32:58;;;;;;;;;;;;;;;14.34;59.79;98184.59;1631722;88;25545;-96
2021/05/23 15:35:25;;;;;;;;;;;;;;;14.28;59.80;98183.33;1631530;88;22201;-95
2021/05/23 15:37:52;;;;;;;;;;;;;;;14.28;59.84;98180.70;1608854;88;26237;-96
2021/05/23 15:40:17;;;;;;;;;;;;;;;14.26;59.88;98177.36;1646654;85;24382;-95